Time;durP1;ratioP1;P1;durP2;ratioP2;P2;SDS_P1;SDS_P2;PMS_P1;PMS_P2;Temp;Humidity;BMP_temperature;BMP_pressure;BME280_temperature;BME280_humidity;BME280_pressure;Samples;Min_cycle;Max_cycle;Signal;HPM_P1;HPM_P2
2022/06/09 00:02:19;;;;;;;21.83;10.00;;;;;;;13.18;100.00;100765.19;5065365;28;20187;-68
2022/06/09 00:04:45;;;;;;;20.63;9.30;;;;;;;13.16;100.00;100767.34;5065808;28;20024;-68
2022/06/09 00:07:17;;;;;;;28.75;10.55;;;;;;;13.16;100.00;100767.34;5065366;28;20062;-68
2022/06/09 00:09:52;;;;;;;23.48;9.38;;;;;;;13.17;100.00;100773.69;5065409;28;20028;-68
2022/06/09 00:12:17;;;;;;;22.50;9.38;;;;;;;13.14;100.00;100777.81;5066071;28;20048;-68
2022/06/09 00:14:42;;;;;;;30.30;10.73;;;;;;;13.14;100.00;100776.97;5065358;28;20056;-68
2022/06/09 00:17:08;;;;;;;20.23;9.65;;;;;;;13.13;100.00;100783.59;5065840;28;20029;-68
2022/06/09 00:19:33;;;;;;;22.58;9.80;;;;;;;13.12;100.00;100779.13;5064964;28;20376;-68
2022/06/09 00:21:59;;;;;;;21.63;10.02;;;;;;;13.12;100.00;100784.66;5065146;28;20028;-68
2022/06/09 00:24:24;;;;;;;23.10;10.25;;;;;;;13.10;100.00;100778.56;5065638;28;20389;-68
2022/06/09 00:26:50;;;;;;;23.40;9.65;;;;;;;13.11;100.00;100780.22;5065079;28;20056;-68
2022/06/09 00:29:15;;;;;;;24.35;9.73;;;;;;;13.09;100.00;100782.41;5064455;28;20020;-68
2022/06/09 00:31:41;;;;;;;25.73;9.48;;;;;;;13.09;100.00;100777.72;5066223;28;20024;-68
2022/06/09 00:34:06;;;;;;;24.60;9.70;;;;;;;13.09;100.00;100779.66;5065030;28;20480;-68
2022/06/09 00:36:32;;;;;;;21.73;9.48;;;;;;;13.09;100.00;100783.25;5065296;28;20140;-67
2022/06/09 00:38:58;;;;;;;26.35;9.88;;;;;;;13.09;100.00;100785.16;5063963;28;20068;-67
2022/06/09 00:41:25;;;;;;;32.08;9.95;;;;;;;13.07;100.00;100779.03;5065181;28;20508;-67
2022/06/09 00:43:50;;;;;;;31.13;9.65;;;;;;;13.06;100.00;100780.13;5065556;28;20032;-68
2022/06/09 00:46:21;;;;;;;28.92;10.18;;;;;;;13.08;100.00;100781.56;5065827;28;20020;-68
2022/06/09 00:48:53;;;;;;;26.90;10.63;;;;;;;13.05;100.00;100783.97;5064678;28;20080;-68
2022/06/09 00:51:38;;;;;;;23.33;8.88;;;;;;;13.05;100.00;100790.31;5066032;28;20100;-67
2022/06/09 00:54:09;;;;;;;38.22;10.73;;;;;;;12.99;100.00;100794.09;5064318;28;20020;-68
2022/06/09 00:56:40;;;;;;;30.30;9.48;;;;;;;12.94;100.00;100797.59;5069214;28;20055;-67
2022/06/09 00:59:06;;;;;;;24.30;9.73;;;;;;;12.91;100.00;100794.47;5067911;28;20025;-67
2022/06/09 01:01:32;;;;;;;32.00;9.77;;;;;;;12.87;100.00;100794.13;5060745;28;20059;-68
2022/06/09 01:04:02;;;;;;;32.97;10.57;;;;;;;12.89;100.00;100794.72;5060607;28;20028;-68
2022/06/09 01:06:33;;;;;;;27.60;9.93;;;;;;;12.86;100.00;100797.13;5065339;28;20116;-67
2022/06/09 01:09:08;;;;;;;27.50;10.20;;;;;;;12.84;100.00;100794.63;5062550;28;20016;-68
2022/06/09 01:11:34;;;;;;;28.13;9.82;;;;;;;12.84;100.00;100786.38;5064211;28;20420;-68
2022/06/09 01:14:00;;;;;;;26.77;9.85;;;;;;;12.81;100.00;100786.84;5065275;28;20033;-68
2022/06/09 01:16:50;;;;;;;34.42;11.23;;;;;;;12.83;100.00;100792.97;5064424;28;20032;-68
2022/06/09 01:19:40;;;;;;;28.30;10.68;;;;;;;12.80;100.00;100798.13;5064617;28;20032;-67
2022/06/09 01:22:33;;;;;;;26.13;9.60;;;;;;;12.78;100.00;100803.06;5064541;28;20086;-68
2022/06/09 01:25:06;;;;;;;30.67;9.85;;;;;;;12.71;100.00;100797.69;5044882;28;20021;-67
2022/06/09 01:27:50;;;;;;;35.10;10.02;;;;;;;12.71;100.00;100800.44;5054167;28;20058;-68
2022/06/09 01:30:19;;;;;;;32.58;11.68;;;;;;;12.72;100.00;100804.84;5065192;28;20028;-69
2022/06/09 01:32:54;;;;;;;35.78;10.88;;;;;;;12.68;100.00;100796.28;5047033;28;20040;-67
2022/06/09 01:35:35;;;;;;;32.95;10.63;;;;;;;12.72;100.00;100804.84;5063937;28;20028;-68
2022/06/09 01:38:00;;;;;;;31.67;11.48;;;;;;;12.67;100.00;100802.00;5064281;28;20392;-68
2022/06/09 01:40:26;;;;;;;32.97;11.32;;;;;;;12.69;100.00;100811.72;5065028;28;20100;-68
2022/06/09 01:42:55;;;;;;;31.77;11.18;;;;;;;12.73;100.00;100814.81;5065111;28;20039;-67
2022/06/09 01:45:41;;;;;;;39.53;11.63;;;;;;;12.71;100.00;100814.22;5064373;28;20043;-68
2022/06/09 01:48:11;;;;;;;33.63;11.52;;;;;;;12.70;100.00;100807.88;5068346;28;20047;-68
2022/06/09 01:50:47;;;;;;;35.30;12.05;;;;;;;12.71;100.00;100816.97;5068581;28;20029;-68
2022/06/09 01:53:18;;;;;;;36.75;12.85;;;;;;;12.71;100.00;100814.22;5066527;28;20036;-68
2022/06/09 01:55:49;;;;;;;41.05;14.40;;;;;;;12.70;100.00;100818.06;5068825;28;20025;-68
2022/06/09 01:58:19;;;;;;;34.08;13.07;;;;;;;12.72;100.00;100815.88;5067887;28;20036;-68
2022/06/09 02:00:45;;;;;;;37.17;11.73;;;;;;;12.68;100.00;100820.25;5068547;28;20031;-68
2022/06/09 02:03:20;;;;;;;44.35;14.68;;;;;;;12.69;100.00;100827.41;5064999;28;20044;-68
2022/06/09 02:05:50;;;;;;;39.97;12.48;;;;;;;12.64;100.00;100814.38;5068257;28;20166;-68
2022/06/09 02:08:19;;;;;;;36.13;13.60;;;;;;;12.63;100.00;100833.91;5067009;28;20031;-68
2022/06/09 02:10:47;;;;;;;38.38;12.63;;;;;;;12.62;100.00;100829.47;5067230;28;20048;-68
2022/06/09 02:13:14;;;;;;;;;;;;;;;12.69;100.00;100831.00;5068516;28;20794;-68
2022/06/09 02:15:43;;;;;;;38.80;13.27;;;;;;;12.60;100.00;100828.88;5068790;28;19912;-68
2022/06/09 02:18:13;;;;;;;40.33;13.48;;;;;;;12.59;100.00;100836.31;5067349;28;20024;-68
2022/06/09 02:20:42;;;;;;;35.30;13.85;;;;;;;12.57;100.00;100846.75;5069038;28;20029;-68
2022/06/09 02:23:10;;;;;;;37.88;13.07;;;;;;;12.56;100.00;100838.72;5065057;28;20017;-68
2022/06/09 02:25:35;;;;;;;;;;;;;;;12.60;100.00;100840.72;5068761;28;20451;-68
2022/06/09 02:28:00;;;;;;;37.53;12.30;;;;;;;12.56;100.00;100844.22;5067036;28;19963;-68
2022/06/09 02:30:26;;;;;;;37.97;14.25;;;;;;;12.56;100.00;100844.22;5068476;28;20012;-68
2022/06/09 02:32:51;;;;;;;37.38;14.85;;;;;;;12.56;100.00;100847.81;5067685;28;20028;-66
2022/06/09 02:35:16;;;;;;;37.03;14.45;;;;;;;12.58;100.00;100858.59;5067488;28;20020;-68
2022/06/09 02:37:41;;;;;;;37.67;13.80;;;;;;;12.57;100.00;100860.53;5066532;28;20601;-68
2022/06/09 02:40:07;;;;;;;38.67;14.05;;;;;;;12.64;100.00;100852.94;5066487;28;20028;-68
2022/06/09 02:42:32;;;;;;;38.67;15.40;;;;;;;12.56;100.00;100855.25;5068014;28;20459;-68
2022/06/09 02:44:58;;;;;;;37.05;14.20;;;;;;;12.56;100.00;100867.09;5066475;28;20020;-68
2022/06/09 02:47:23;;;;;;;38.22;14.13;;;;;;;12.58;100.00;100864.13;5068096;28;20488;-69
2022/06/09 02:49:48;;;;;;;36.67;14.38;;;;;;;12.59;100.00;100868.53;5066948;28;20040;-68
2022/06/09 02:52:14;;;;;;;41.25;14.05;;;;;;;12.59;100.00;100876.81;5066697;28;20481;-68
2022/06/09 02:54:39;;;;;;;43.03;14.20;;;;;;;12.61;100.00;100869.94;5067747;28;20020;-68
2022/06/09 02:57:04;;;;;;;46.13;15.35;;;;;;;12.59;100.00;100877.63;5067284;28;20492;-68
2022/06/09 02:59:30;;;;;;;43.05;15.15;;;;;;;12.59;100.00;100877.63;5060488;28;20065;-68
2022/06/09 03:01:55;;;;;;;43.58;15.35;;;;;;;12.60;100.00;100878.47;5057034;28;20024;-69
2022/06/09 03:04:20;;;;;;;39.80;14.88;;;;;;;12.61;100.00;100880.13;5063501;28;20107;-68
2022/06/09 03:06:46;;;;;;;41.30;14.82;;;;;;;12.64;100.00;100877.75;5066429;28;20055;-68
2022/06/09 03:09:11;;;;;;;35.30;14.02;;;;;;;12.61;100.00;100888.41;5066900;28;20192;-68
2022/06/09 03:11:37;;;;;;;35.47;14.18;;;;;;;12.59;100.00;100894.16;5068177;28;20029;-68
2022/06/09 03:14:02;;;;;;;44.22;16.55;;;;;;;12.63;100.00;100894.53;5066961;28;20032;-68
2022/06/09 03:16:28;;;;;;;38.90;15.10;;;;;;;12.60;100.00;100887.56;5065947;28;20032;-68
2022/06/09 03:18:53;;;;;;;44.65;14.27;;;;;;;12.61;100.00;100899.44;5065511;28;20556;-68
2022/06/09 03:21:18;;;;;;;47.50;14.50;;;;;;;12.61;100.00;100899.44;5066477;28;20135;-68
2022/06/09 03:23:44;;;;;;;42.55;14.38;;;;;;;12.61;100.00;100913.19;5066503;28;20051;-68
2022/06/09 03:26:09;;;;;;;42.90;15.13;;;;;;;12.62;100.00;100912.13;5066057;28;20115;-68
2022/06/09 03:28:35;;;;;;;36.58;15.57;;;;;;;12.62;100.00;100918.50;5066366;28;20024;-68
2022/06/09 03:31:01;;;;;;;44.33;14.93;;;;;;;12.67;100.00;100920.50;5065920;28;20095;-68
2022/06/09 03:33:26;;;;;;;40.30;14.55;;;;;;;12.70;100.00;100922.78;5066844;28;20024;-68
2022/06/09 03:35:52;;;;;;;40.58;13.98;;;;;;;12.69;100.00;100932.97;5068532;28;20025;-68
2022/06/09 03:38:17;;;;;;;43.50;15.15;;;;;;;12.76;100.00;100934.75;5064442;28;20429;-68
2022/06/09 03:40:43;;;;;;;36.97;14.38;;;;;;;12.71;100.00;100940.97;5065235;28;20043;-67
2022/06/09 03:43:08;;;;;;;45.00;15.50;;;;;;;12.67;100.00;100943.41;5066441;28;20105;-67
2022/06/09 03:45:34;;;;;;;41.05;15.10;;;;;;;12.66;100.00;100947.22;5064796;28;20028;-67
2022/06/09 03:48:00;;;;;;;45.03;15.23;;;;;;;12.63;100.00;100946.88;5065634;28;20128;-68
2022/06/09 03:50:27;;;;;;;46.45;15.43;;;;;;;12.59;100.00;100943.75;5082519;28;20110;-68
2022/06/09 03:52:53;;;;;;;43.13;15.95;;;;;;;12.57;100.00;100959.72;5065284;28;20029;-68
2022/06/09 03:55:19;;;;;;;43.00;14.35;;;;;;;12.53;100.00;100952.16;5064420;28;20055;-68
2022/06/09 03:57:44;;;;;;;44.53;14.95;;;;;;;12.53;100.00;100966.78;5066768;28;20025;-68
2022/06/09 04:00:16;;;;;;;40.17;14.90;;;;;;;12.51;100.00;100959.81;5063424;28;20040;-67
2022/06/09 04:02:41;;;;;;;38.97;14.82;;;;;;;12.45;100.00;100970.72;5076068;28;20472;-68
2022/06/09 04:05:07;;;;;;;41.40;14.43;;;;;;;12.41;100.00;100975.03;5066030;28;20029;-67
2022/06/09 04:07:32;;;;;;;42.83;15.32;;;;;;;12.39;100.00;100977.19;5065411;28;20033;-68
2022/06/09 04:09:58;;;;;;;35.33;14.13;;;;;;;12.39;100.00;100976.34;5065399;28;20431;-68
2022/06/09 04:12:24;;;;;;;38.70;14.23;;;;;;;12.36;100.00;100987.84;5065754;28;20055;-68
2022/06/09 04:14:50;;;;;;;39.92;14.50;;;;;;;12.35;100.00;100989.75;5065769;28;20033;-68
2022/06/09 04:17:15;;;;;;;36.63;13.55;;;;;;;12.35;100.00;100987.00;5066141;28;20074;-67
2022/06/09 04:19:41;;;;;;;44.92;13.85;;;;;;;12.34;100.00;100985.34;5064760;28;20032;-67
2022/06/09 04:22:07;;;;;;;41.97;13.55;;;;;;;12.33;100.00;100991.09;5064652;28;20387;-67
2022/06/09 04:24:32;;;;;;;43.60;14.93;;;;;;;12.30;100.00;100989.63;5065563;28;20023;-67
2022/06/09 04:26:58;;;;;;;37.40;15.27;;;;;;;12.30;100.00;100988.81;5065851;28;20017;-67
2022/06/09 04:29:23;;;;;;;44.67;13.70;;;;;;;12.29;100.00;100992.63;5065926;28;20051;-67
2022/06/09 04:31:49;;;;;;;41.55;14.05;;;;;;;12.29;100.00;100998.97;5064268;28;20027;-67
2022/06/09 04:34:14;;;;;;;43.58;13.65;;;;;;;12.31;100.00;101001.50;5064879;28;20033;-67
2022/06/09 04:36:41;;;;;;;34.67;12.93;;;;;;;12.31;100.00;101005.06;5065444;28;20020;-68
2022/06/09 04:39:08;;;;;;;36.42;13.82;;;;;;;12.33;100.00;101000.19;5065471;28;20485;-67
2022/06/09 04:41:34;;;;;;;41.42;14.23;;;;;;;12.34;100.00;101006.53;5064972;28;20028;-67
2022/06/09 04:43:59;;;;;;;41.45;14.90;;;;;;;12.35;100.00;100999.94;5064480;28;20673;-68
2022/06/09 04:46:25;;;;;;;41.30;15.13;;;;;;;12.35;100.00;101006.28;5065603;28;20089;-68
2022/06/09 04:48:52;;;;;;;41.03;14.68;;;;;;;12.34;100.00;101012.03;5065617;28;20090;-67
2022/06/09 04:51:19;;;;;;;38.28;15.13;;;;;;;12.30;100.00;101008.91;5064440;28;20073;-67
2022/06/09 04:53:46;;;;;;;42.37;14.10;;;;;;;12.31;100.00;101016.09;5063780;28;20097;-68
2022/06/09 04:56:14;;;;;;;34.42;14.02;;;;;;;12.30;100.00;101022.69;5066024;28;20274;-68
2022/06/09 04:58:40;;;;;;;37.78;15.13;;;;;;;12.31;100.00;101027.13;5069199;28;20032;-67
2022/06/09 05:01:13;;;;;;;35.20;13.27;;;;;;;12.28;100.00;101038.63;5064252;28;20028;-67
2022/06/09 05:03:38;;;;;;;43.33;13.70;;;;;;;12.28;100.00;101044.13;5064375;28;20392;-67
2022/06/09 05:06:04;;;;;;;38.53;14.10;;;;;;;12.30;100.00;101035.63;5063987;28;20024;-67
2022/06/09 05:08:29;;;;;;;38.47;13.73;;;;;;;12.31;100.00;101040.88;5063702;28;20600;-67
2022/06/09 05:10:54;;;;;;;41.92;14.73;;;;;;;12.34;100.00;101040.41;5065319;28;20032;-67
2022/06/09 05:13:19;;;;;;;41.08;16.58;;;;;;;12.40;100.00;101047.72;5063457;28;20496;-68
2022/06/09 05:15:49;;;;;;;42.15;17.45;;;;;;;12.45;100.00;101056.13;5047674;28;20480;-67
2022/06/09 05:18:14;;;;;;;44.45;16.00;;;;;;;12.57;100.00;101058.03;5066876;28;20044;-67
2022/06/09 05:20:40;;;;;;;40.45;15.27;;;;;;;12.63;100.00;101063.44;5066213;28;20028;-68
2022/06/09 05:23:05;;;;;;;40.45;15.95;;;;;;;12.72;100.00;101070.28;5068272;28;20036;-67
2022/06/09 05:25:30;;;;;;;35.35;14.73;;;;;;;12.79;100.00;101074.84;5068810;28;20044;-67
2022/06/09 05:27:56;;;;;;;49.17;15.10;;;;;;;12.85;100.00;101077.47;5068858;28;20021;-67
2022/06/09 05:30:24;;;;;;;37.15;16.38;;;;;;;12.95;100.00;101072.19;5068326;28;21038;-68
2022/06/09 05:32:49;;;;;;;43.75;16.10;;;;;;;13.00;100.00;101079.72;5069130;28;20415;-68
2022/06/09 05:35:15;;;;;;;34.33;13.95;;;;;;;13.05;100.00;101081.75;5068598;28;20021;-67
2022/06/09 05:45:57;;;;;;;39.65;13.48;;;;;;;13.47;100.00;101099.81;5074936;28;20050;-67
2022/06/09 05:48:22;;;;;;;46.17;14.15;;;;;;;13.55;100.00;101100.53;5066004;28;20404;-67
2022/06/09 05:50:49;;;;;;;32.60;13.75;;;;;;;13.56;100.00;101104.97;5067502;28;20876;-67
2022/06/09 05:53:15;;;;;;;31.15;12.90;;;;;;;13.56;100.00;101108.56;5068134;28;20546;-67
2022/06/09 05:55:40;;;;;;;30.17;11.98;;;;;;;13.59;100.00;101108.09;5070540;28;20036;-67
2022/06/09 05:58:06;;;;;;;24.77;11.25;;;;;;;13.63;100.00;101109.25;5067907;28;20706;-67
2022/06/09 06:00:31;;;;;;;33.85;11.75;;;;;;;13.69;100.00;101119.34;5069392;28;20306;-67
2022/06/09 06:02:57;;;;;;;25.38;10.65;;;;;;;13.71;100.00;101125.44;5066590;28;20029;-67
2022/06/09 06:08:07;;;;;;;24.58;10.05;;;;;;;13.80;100.00;101131.41;5068024;28;20071;-67
2022/06/09 06:10:32;;;;;;;26.92;10.10;;;;;;;13.80;100.00;101139.69;5066875;28;20406;-67
2022/06/09 06:12:57;;;;;;;27.17;10.70;;;;;;;13.88;100.00;101138.47;5067672;28;20486;-67
2022/06/09 06:15:23;;;;;;;21.45;10.02;;;;;;;13.91;100.00;101137.97;5068092;28;20036;-67
2022/06/09 06:17:48;;;;;;;26.33;10.43;;;;;;;14.00;100.00;101142.88;5066403;28;20485;-67
2022/06/09 06:20:13;;;;;;;27.50;10.38;;;;;;;14.12;100.00;101144.75;5079878;28;20024;-66
2022/06/09 06:22:39;;;;;;;22.52;9.85;;;;;;;14.15;100.00;101156.13;5067854;28;20024;-67
2022/06/09 06:25:06;;;;;;;29.02;9.13;;;;;;;14.19;100.00;101161.97;5067728;28;20032;-67
2022/06/09 06:27:31;;;;;;;21.35;9.27;;;;;;;14.21;100.00;101162.59;5066911;28;20035;-67
2022/06/09 06:29:56;;;;;;;22.60;8.48;;;;;;;14.18;100.00;101160.31;5068219;28;20029;-67
2022/06/09 06:32:22;;;;;;;23.73;8.40;;;;;;;14.13;100.00;101162.97;5067466;28;20029;-67
2022/06/09 06:34:47;;;;;;;21.92;8.45;;;;;;;14.07;100.00;101175.03;5066276;28;20097;-65
2022/06/09 06:37:12;;;;;;;19.70;8.38;;;;;;;14.02;100.00;101179.34;5065280;28;20088;-67
2022/06/09 06:39:38;;;;;;;21.70;8.32;;;;;;;14.03;100.00;101181.03;5066705;28;20047;-67
2022/06/09 06:42:03;;;;;;;23.00;8.90;;;;;;;14.03;100.00;101197.59;5067339;28;20056;-67
2022/06/09 06:44:28;;;;;;;19.90;8.05;;;;;;;14.06;100.00;101195.44;5067253;28;20020;-67
2022/06/09 06:46:54;;;;;;;23.35;9.77;;;;;;;14.02;100.00;101201.44;5059712;28;20481;-66
2022/06/09 06:49:19;;;;;;;21.55;9.63;;;;;;;14.06;100.00;101206.50;5055921;28;20044;-67
2022/06/09 06:51:44;;;;;;;24.83;10.05;;;;;;;14.10;100.00;101214.03;5062718;28;20096;-67
2022/06/09 06:54:11;;;;;;;20.23;9.07;;;;;;;14.12;100.00;101213.78;5066690;28;20023;-67
2022/06/09 06:56:37;;;;;;;23.00;9.52;;;;;;;14.16;100.00;101217.75;5066324;28;20032;-67
2022/06/09 06:59:02;;;;;;;22.02;9.65;;;;;;;14.17;100.00;101225.78;5066804;28;20593;-67
2022/06/09 07:01:28;;;;;;;21.58;9.73;;;;;;;14.21;100.00;101217.84;5063818;28;20119;-66
2022/06/09 07:03:55;;;;;;;25.13;10.18;;;;;;;14.30;100.00;101224.66;5065365;28;20104;-66
2022/06/09 07:06:21;;;;;;;23.67;10.57;;;;;;;14.31;100.00;101226.34;5064162;28;20028;-66
2022/06/09 07:08:46;;;;;;;22.27;11.30;;;;;;;14.31;100.00;101223.56;5066185;28;20028;-66
2022/06/09 07:11:12;;;;;;;23.27;10.88;;;;;;;14.38;100.00;101235.31;5066587;28;20024;-67
2022/06/09 07:13:38;;;;;;;25.75;10.23;;;;;;;14.45;100.00;101236.00;5066413;28;20025;-66
2022/06/09 07:16:05;;;;;;;17.65;8.48;;;;;;;14.46;100.00;101239.63;5064786;28;20177;-67
2022/06/09 07:18:31;;;;;;;15.63;8.50;;;;;;;14.49;100.00;101245.50;5065147;28;20469;-71
2022/06/09 07:20:57;;;;;;;18.60;8.23;;;;;;;14.57;100.00;101249.81;5066007;28;20051;-68
2022/06/09 07:23:24;;;;;;;18.33;7.78;;;;;;;14.58;99.32;101248.72;5066596;28;20035;-67
2022/06/09 07:25:50;;;;;;;15.93;7.70;;;;;;;14.66;98.63;101250.25;5068348;28;20033;-68
2022/06/09 07:28:15;;;;;;;16.67;7.53;;;;;;;14.71;98.90;101258.66;5065064;28;20507;-68
2022/06/09 07:30:40;;;;;;;17.45;7.25;;;;;;;14.84;99.15;101263.00;5067139;28;20028;-67
2022/06/09 07:33:06;;;;;;;13.30;7.03;;;;;;;14.97;99.20;101263.53;5066406;28;20025;-68
2022/06/09 07:35:34;;;;;;;13.30;7.53;;;;;;;15.07;97.43;101264.81;5063197;28;20025;-67
2022/06/09 07:37:59;;;;;;;9.95;6.13;;;;;;;15.13;96.42;101259.09;5066065;28;20077;-68
2022/06/09 07:40:25;;;;;;;12.32;5.85;;;;;;;15.21;95.58;101246.78;5066409;28;20036;-67
2022/06/09 07:42:50;;;;;;;14.20;5.82;;;;;;;15.37;95.67;101256.19;5065162;28;20029;-67
2022/06/09 07:45:16;;;;;;;12.25;5.70;;;;;;;15.60;94.37;101257.91;5061936;28;20032;-67
2022/06/09 07:47:42;;;;;;;11.57;6.25;;;;;;;15.74;92.93;101256.47;5063816;28;20271;-67
2022/06/09 07:50:08;;;;;;;10.88;5.97;;;;;;;15.85;92.30;101261.06;5064078;28;20483;-68
2022/06/09 07:52:34;;;;;;;11.65;5.57;;;;;;;16.01;92.81;101262.09;5065654;28;20036;-69
2022/06/09 07:54:59;;;;;;;10.93;6.55;;;;;;;16.24;93.83;101266.56;5067237;28;20013;-67
2022/06/09 07:57:24;;;;;;;12.20;6.00;;;;;;;16.34;90.01;101266.69;5073760;28;20089;-68
2022/06/09 07:59:49;;;;;;;7.30;4.93;;;;;;;16.47;90.51;101268.22;5065880;28;20028;-68
2022/06/09 08:02:15;;;;;;;7.90;3.85;;;;;;;16.55;87.35;101274.16;5065568;28;20021;-67
2022/06/09 08:04:40;;;;;;;8.68;3.90;;;;;;;16.59;86.90;101274.47;5068698;28;20032;-69
2022/06/09 08:07:06;;;;;;;6.60;2.63;;;;;;;16.57;83.80;101276.66;5063015;28;20021;-68
2022/06/09 08:09:31;;;;;;;7.10;2.50;;;;;;;16.58;83.35;101281.13;5063799;28;20073;-68
2022/06/09 08:11:57;;;;;;;6.80;2.75;;;;;;;16.59;82.39;101282.78;5063253;28;20024;-68
2022/06/09 08:14:23;;;;;;;7.97;2.58;;;;;;;16.65;81.75;101283.69;5064766;28;20032;-68
2022/06/09 08:16:48;;;;;;;6.57;2.60;;;;;;;16.83;83.18;101286.97;5064103;28;20115;-68
2022/06/09 08:19:14;;;;;;;5.05;3.08;;;;;;;16.93;79.82;101290.94;5063189;28;20138;-68
2022/06/09 08:21:39;;;;;;;8.43;2.20;;;;;;;16.98;81.06;101289.06;5063419;28;20151;-68
2022/06/09 08:24:06;;;;;;;8.18;2.33;;;;;;;17.08;79.78;101302.16;5063957;28;20366;-68
2022/06/09 08:26:31;;;;;;;4.30;2.10;;;;;;;17.35;77.57;101305.78;5064344;28;20457;-68
2022/06/09 08:28:56;;;;;;;4.10;1.65;;;;;;;17.60;74.54;101307.06;5063983;28;20035;-68
2022/06/09 08:31:22;;;;;;;4.20;2.45;;;;;;;17.85;75.10;101315.63;5064930;28;20025;-69
2022/06/09 08:33:47;;;;;;;4.10;1.75;;;;;;;18.09;72.51;101313.25;5064128;28;20029;-69
2022/06/09 08:36:13;;;;;;;3.42;1.35;;;;;;;18.20;70.66;101318.84;5063856;28;20028;-69
2022/06/09 08:38:38;;;;;;;3.22;1.45;;;;;;;18.17;70.46;101330.53;5064684;28;20024;-69
2022/06/09 08:41:27;;;;;;;3.03;1.67;;;;;;;18.04;74.31;101335.44;5064213;28;20035;-68
2022/06/09 08:44:15;;;;;;;4.05;1.85;;;;;;;17.83;74.98;101347.53;5064378;28;20028;-69
2022/06/09 08:47:05;;;;;;;4.63;2.03;;;;;;;17.44;73.64;101352.50;5064238;28;20059;-69
2022/06/09 08:50:00;;;;;;;4.70;1.80;;;;;;;17.09;74.41;101363.00;5064385;28;20041;-68
2022/06/09 08:52:43;;;;;;;4.30;2.50;;;;;;;16.80;73.28;101362.38;5063574;28;20119;-69
2022/06/09 08:55:25;;;;;;;7.43;2.72;;;;;;;16.73;75.03;101370.09;5066215;28;20032;-68
2022/06/09 08:57:52;;;;;;;5.68;2.65;;;;;;;16.51;75.03;101367.25;5068286;28;20021;-69
2022/06/09 09:00:22;;;;;;;5.88;2.47;;;;;;;16.29;76.73;101374.72;5068583;28;20401;-68
2022/06/09 09:02:52;;;;;;;6.47;3.67;;;;;;;16.08;78.29;101373.59;5068023;28;20100;-68
2022/06/09 09:05:37;;;;;;;12.15;4.55;;;;;;;15.96;79.53;101373.69;5067509;28;20425;-68
2022/06/09 09:08:06;;;;;;;8.63;5.30;;;;;;;15.81;80.98;101384.53;5068053;28;20024;-68
2022/06/09 09:10:42;;;;;;;12.82;4.75;;;;;;;15.69;83.12;101386.56;5068401;28;20035;-68
2022/06/09 09:13:27;;;;;;;11.43;5.30;;;;;;;15.67;83.66;101385.97;5050249;28;20034;-69
2022/06/09 09:16:03;;;;;;;9.52;4.60;;;;;;;15.63;85.67;101390.31;5068065;28;20035;-69
2022/06/09 09:18:44;;;;;;;10.48;4.82;;;;;;;15.69;85.69;101384.63;5067731;28;20425;-69
2022/06/09 09:21:25;;;;;;;8.48;4.90;;;;;;;15.74;85.31;101394.94;5049488;28;20127;-69
2022/06/09 09:24:30;;;;;;;11.13;5.40;;;;;;;15.91;85.69;101400.47;5068057;28;20025;-69
2022/06/09 09:27:08;;;;;;;7.50;4.90;;;;;;;16.01;84.32;101400.63;5068110;28;20029;-68
2022/06/09 09:29:39;;;;;;;;;;;;;;;16.23;85.08;101398.78;5068152;28;20021;-68
2022/06/09 09:32:12;;;;;;;9.43;5.50;;;;;;;16.26;83.45;101401.00;5067146;28;19986;-69
2022/06/09 09:34:41;;;;;;;11.05;5.53;;;;;;;16.33;82.33;101403.63;5067969;28;20024;-69
2022/06/09 09:37:48;;;;;;;11.52;5.43;;;;;;;16.50;85.24;101409.94;5066620;28;20013;-69
2022/06/09 09:40:30;;;;;;;8.80;4.95;;;;;;;16.71;79.96;101413.88;5005735;28;20080;-68
2022/06/09 09:42:59;;;;;;;8.07;4.53;;;;;;;16.82;78.91;101410.13;5061551;28;20037;-69
2022/06/09 09:45:33;;;;;;;8.90;4.70;;;;;;;17.05;79.74;101417.34;5067820;28;20038;-69
2022/06/09 09:48:03;;;;;;;12.43;4.20;;;;;;;17.21;76.40;101415.56;5066684;28;20042;-69
2022/06/09 09:50:32;;;;;;;10.82;4.97;;;;;;;17.21;75.54;101415.56;5066924;28;20020;-69
2022/06/09 09:53:00;;;;;;;11.95;4.60;;;;;;;17.28;77.33;101421.72;5067109;28;20033;-69
2022/06/09 09:55:38;;;;;;;10.05;4.80;;;;;;;17.38;75.88;101423.78;5067827;28;20032;-69
2022/06/09 09:58:14;;;;;;;9.57;4.95;;;;;;;17.53;74.70;101420.31;5066896;28;20040;-69
2022/06/09 10:00:40;;;;;;;10.45;4.80;;;;;;;17.77;74.83;101427.25;5067545;28;20096;-69
2022/06/09 10:09:18;;;;;;;11.05;5.60;;;;;;;18.85;73.57;101424.06;5066963;28;20159;-69
2022/06/09 10:11:53;;;;;;;10.40;4.70;;;;;;;19.10;70.25;101428.88;5067754;28;20067;-69
2022/06/09 10:14:31;;;;;;;8.90;4.88;;;;;;;19.41;68.93;101427.03;5067457;28;20123;-69
2022/06/09 10:16:57;;;;;;;9.10;5.03;;;;;;;20.09;66.34;101425.97;5066306;28;20102;-69
2022/06/09 10:19:27;;;;;;;9.73;4.75;;;;;;;21.02;64.30;101428.25;5067277;28;20037;-69
2022/06/09 10:22:03;;;;;;;7.63;4.07;;;;;;;21.53;61.05;101430.75;5065791;28;20421;-69
2022/06/09 10:24:44;;;;;;;10.75;4.20;;;;;;;21.74;60.97;101428.66;5067374;28;20134;-69
2022/06/09 10:27:15;;;;;;;9.25;3.90;;;;;;;22.25;56.85;101425.44;5066432;28;20090;-70
2022/06/09 10:29:54;;;;;;;9.68;4.70;;;;;;;23.31;58.22;101426.13;5066972;28;20453;-69
2022/06/09 10:32:38;;;;;;;9.80;3.92;;;;;;;23.82;53.19;101427.31;5066336;28;20025;-69
2022/06/09 10:35:18;;;;;;;9.07;4.25;;;;;;;23.87;52.68;101437.63;5065646;28;20119;-70
2022/06/09 10:37:50;;;;;;;10.40;4.45;;;;;;;23.72;51.78;101438.72;5067205;28;20028;-70
2022/06/09 10:40:40;;;;;;;11.40;4.57;;;;;;;23.30;56.26;101432.88;5066662;28;20028;-70
2022/06/09 10:43:26;;;;;;;10.15;4.63;;;;;;;23.00;55.95;101436.09;5066399;28;20055;-70
2022/06/09 10:46:00;;;;;;;9.18;4.32;;;;;;;22.37;56.44;101448.28;5066089;28;20028;-69
2022/06/09 10:57:16;;;;;;;10.07;3.85;;;;;;;21.02;58.89;101450.59;5051151;28;20223;-70
2022/06/09 10:59:54;;;;;;;9.30;3.63;;;;;;;20.66;60.95;101452.69;5066125;28;20424;-71
2022/06/09 11:02:23;;;;;;;;;;;;;;;20.68;62.77;101459.66;5066727;28;20023;-71
2022/06/09 11:04:51;;;;;;;9.35;3.80;;;;;;;19.96;62.51;101455.25;5065936;28;20342;-70
2022/06/09 11:07:47;;;;;;;10.02;3.95;;;;;;;19.64;65.31;101458.31;5066686;28;20024;-70
2022/06/09 11:10:36;;;;;;;11.35;4.13;;;;;;;19.52;64.84;101452.97;5066448;28;20111;-71
2022/06/09 11:13:18;;;;;;;11.45;3.90;;;;;;;19.42;64.89;101453.78;5065835;28;20036;-70
2022/06/09 11:16:02;;;;;;;12.38;5.25;;;;;;;19.41;66.41;101465.19;5066004;28;20025;-70
2022/06/09 11:18:39;;;;;;;10.70;3.67;;;;;;;19.78;64.45;101472.53;5064600;28;20392;-70
2022/06/09 11:21:19;;;;;;;11.38;4.50;;;;;;;19.91;64.11;101474.75;5064785;28;20028;-70
2022/06/09 11:23:57;;;;;;;10.15;3.97;;;;;;;20.36;64.35;101471.13;5065557;28;20024;-70
2022/06/09 11:26:48;;;;;;;9.35;3.55;;;;;;;21.23;62.50;101468.06;5066086;28;20025;-70
2022/06/09 11:30:04;;;;;;;10.65;3.28;;;;;;;21.60;60.67;101473.22;5047761;28;20024;-71
2022/06/09 11:32:48;;;;;;;13.65;3.47;;;;;;;21.33;59.97;101473.66;5031348;28;20033;-70
2022/06/09 11:35:27;;;;;;;9.93;3.35;;;;;;;21.64;60.26;101468.69;5064934;28;20056;-70
2022/06/09 11:38:27;;;;;;;8.52;3.13;;;;;;;21.95;59.33;101476.88;5064970;28;20070;-71
2022/06/09 11:41:08;;;;;;;11.50;3.50;;;;;;;21.90;54.97;101488.13;5064841;28;20473;-71
2022/06/09 11:43:33;;;;;;;15.77;3.88;;;;;;;;;;5065270;28;20031;-70
2022/06/09 11:46:03;;;;;;;10.53;3.23;;;;;;;21.02;56.45;101486.06;5065015;28;20111;-70
2022/06/09 11:48:33;;;;;;;9.93;3.40;;;;;;;21.06;57.29;101487.16;5065189;28;20433;-71
2022/06/09 11:51:01;;;;;;;15.02;3.97;;;;;;;21.68;58.42;101494.94;5064549;28;20054;-71